sensor_id;sensor_type;location;lat;lon;timestamp;temperature;humidity
37702;DHT22;23548;51.196;6.838;2023-01-19T00:00:36;2.00;99.90
37702;DHT22;23548;51.196;6.838;2023-01-19T00:03:03;2.00;99.90
37702;DHT22;23548;51.196;6.838;2023-01-19T00:05:29;2.00;99.90
37702;DHT22;23548;51.196;6.838;2023-01-19T00:07:55;1.90;99.90
37702;DHT22;23548;51.196;6.838;2023-01-19T00:10:20;1.90;99.90
37702;DHT22;23548;51.196;6.838;2023-01-19T00:12:46;1.90;99.90
37702;DHT22;23548;51.196;6.838;2023-01-19T00:15:12;1.90;99.90
37702;DHT22;23548;51.196;6.838;2023-01-19T00:17:37;1.90;99.90
37702;DHT22;23548;51.196;6.838;2023-01-19T00:20:06;1.80;99.90
37702;DHT22;23548;51.196;6.838;2023-01-19T00:22:32;1.90;99.90
37702;DHT22;23548;51.196;6.838;2023-01-19T00:24:58;2.10;99.90
37702;DHT22;23548;51.196;6.838;2023-01-19T00:27:23;2.10;99.90
37702;DHT22;23548;51.196;6.838;2023-01-19T00:29:49;2.20;99.90
37702;DHT22;23548;51.196;6.838;2023-01-19T00:32:15;2.20;99.90
37702;DHT22;23548;51.196;6.838;2023-01-19T00:34:42;2.20;99.90
37702;DHT22;23548;51.196;6.838;2023-01-19T00:37:14;2.10;99.90
37702;DHT22;23548;51.196;6.838;2023-01-19T00:39:41;2.00;99.90
37702;DHT22;23548;51.196;6.838;2023-01-19T00:42:11;2.00;99.90
37702;DHT22;23548;51.196;6.838;2023-01-19T00:44:56;1.90;99.90
37702;DHT22;23548;51.196;6.838;2023-01-19T00:47:22;1.90;99.90
37702;DHT22;23548;51.196;6.838;2023-01-19T00:49:47;1.80;99.90
37702;DHT22;23548;51.196;6.838;2023-01-19T00:52:13;1.70;99.90
37702;DHT22;23548;51.196;6.838;2023-01-19T00:54:38;1.70;99.90
37702;DHT22;23548;51.196;6.838;2023-01-19T00:57:04;1.70;99.90
37702;DHT22;23548;51.196;6.838;2023-01-19T00:59:31;1.80;99.90
37702;DHT22;23548;51.196;6.838;2023-01-19T01:01:56;1.80;99.90
37702;DHT22;23548;51.196;6.838;2023-01-19T01:04:22;1.80;99.90
37702;DHT22;23548;51.196;6.838;2023-01-19T01:06:48;1.80;99.90
37702;DHT22;23548;51.196;6.838;2023-01-19T01:09:14;1.80;99.90
37702;DHT22;23548;51.196;6.838;2023-01-19T01:11:42;1.80;99.90
37702;DHT22;23548;51.196;6.838;2023-01-19T01:14:10;1.80;99.90
37702;DHT22;23548;51.196;6.838;2023-01-19T01:16:35;1.90;99.90
37702;DHT22;23548;51.196;6.838;2023-01-19T01:19:01;1.90;99.90
37702;DHT22;23548;51.196;6.838;2023-01-19T01:21:27;1.90;99.90
37702;DHT22;23548;51.196;6.838;2023-01-19T01:23:53;1.80;99.90
37702;DHT22;23548;51.196;6.838;2023-01-19T01:26:19;1.80;99.90
37702;DHT22;23548;51.196;6.838;2023-01-19T01:28:44;1.80;99.90
37702;DHT22;23548;51.196;6.838;2023-01-19T01:31:10;1.80;99.90
37702;DHT22;23548;51.196;6.838;2023-01-19T01:33:36;1.70;99.90
37702;DHT22;23548;51.196;6.838;2023-01-19T01:36:02;1.70;99.90
37702;DHT22;23548;51.196;6.838;2023-01-19T01:38:28;1.60;99.90
37702;DHT22;23548;51.196;6.838;2023-01-19T01:40:54;1.70;99.90
37702;DHT22;23548;51.196;6.838;2023-01-19T01:43:19;1.80;99.90
37702;DHT22;23548;51.196;6.838;2023-01-19T01:45:46;1.80;99.90
37702;DHT22;23548;51.196;6.838;2023-01-19T01:48:25;1.90;99.90
37702;DHT22;23548;51.196;6.838;2023-01-19T01:50:56;1.90;99.90
37702;DHT22;23548;51.196;6.838;2023-01-19T01:53:44;1.90;99.90
37702;DHT22;23548;51.196;6.838;2023-01-19T01:56:15;2.00;99.90
37702;DHT22;23548;51.196;6.838;2023-01-19T01:58:42;2.00;99.90
37702;DHT22;23548;51.196;6.838;2023-01-19T02:01:09;2.00;99.90
37702;DHT22;23548;51.196;6.838;2023-01-19T02:03:53;2.00;99.90
37702;DHT22;23548;51.196;6.838;2023-01-19T02:06:20;2.00;99.90
37702;DHT22;23548;51.196;6.838;2023-01-19T02:09:07;2.00;99.90
37702;DHT22;23548;51.196;6.838;2023-01-19T02:11:54;2.10;99.90
37702;DHT22;23548;51.196;6.838;2023-01-19T02:14:38;2.00;99.90
37702;DHT22;23548;51.196;6.838;2023-01-19T02:17:04;2.10;99.90
37702;DHT22;23548;51.196;6.838;2023-01-19T02:19:38;2.20;99.90
37702;DHT22;23548;51.196;6.838;2023-01-19T02:22:19;2.20;99.90
37702;DHT22;23548;51.196;6.838;2023-01-19T02:24:49;2.20;99.90
37702;DHT22;23548;51.196;6.838;2023-01-19T02:27:15;2.20;99.90
37702;DHT22;23548;51.196;6.838;2023-01-19T02:29:41;2.20;99.90
37702;DHT22;23548;51.196;6.838;2023-01-19T02:32:08;2.20;99.90
37702;DHT22;23548;51.196;6.838;2023-01-19T02:34:34;2.10;99.90
37702;DHT22;23548;51.196;6.838;2023-01-19T02:37:05;2.00;99.90
37702;DHT22;23548;51.196;6.838;2023-01-19T02:45:06;2.00;99.90
37702;DHT22;23548;51.196;6.838;2023-01-19T02:47:38;2.00;99.90
37702;DHT22;23548;51.196;6.838;2023-01-19T02:50:04;2.00;99.90
37702;DHT22;23548;51.196;6.838;2023-01-19T02:52:51;2.00;99.90
37702;DHT22;23548;51.196;6.838;2023-01-19T02:55:20;1.90;99.90
37702;DHT22;23548;51.196;6.838;2023-01-19T02:58:14;1.90;99.90
37702;DHT22;23548;51.196;6.838;2023-01-19T03:03:54;1.80;99.90
37702;DHT22;23548;51.196;6.838;2023-01-19T03:06:46;1.80;99.90
37702;DHT22;23548;51.196;6.838;2023-01-19T03:12:20;1.70;99.90
37702;DHT22;23548;51.196;6.838;2023-01-19T03:14:48;1.70;99.90
37702;DHT22;23548;51.196;6.838;2023-01-19T03:17:16;1.70;99.90
37702;DHT22;23548;51.196;6.838;2023-01-19T03:19:45;1.70;99.90
37702;DHT22;23548;51.196;6.838;2023-01-19T03:22:19;1.80;99.90
37702;DHT22;23548;51.196;6.838;2023-01-19T03:24:46;1.80;99.90
37702;DHT22;23548;51.196;6.838;2023-01-19T03:27:20;1.70;99.90
37702;DHT22;23548;51.196;6.838;2023-01-19T03:29:53;1.70;99.90
37702;DHT22;23548;51.196;6.838;2023-01-19T03:32:24;1.80;99.90
37702;DHT22;23548;51.196;6.838;2023-01-19T03:34:58;1.80;99.90
37702;DHT22;23548;51.196;6.838;2023-01-19T03:37:26;1.80;99.90
37702;DHT22;23548;51.196;6.838;2023-01-19T03:39:54;1.80;99.90
37702;DHT22;23548;51.196;6.838;2023-01-19T03:42:21;1.90;99.90
37702;DHT22;23548;51.196;6.838;2023-01-19T03:44:50;1.90;99.90
37702;DHT22;23548;51.196;6.838;2023-01-19T03:47:20;2.00;99.90
37702;DHT22;23548;51.196;6.838;2023-01-19T03:49:48;1.90;99.90
37702;DHT22;23548;51.196;6.838;2023-01-19T03:52:16;2.00;99.90
37702;DHT22;23548;51.196;6.838;2023-01-19T03:54:42;2.00;99.90
37702;DHT22;23548;51.196;6.838;2023-01-19T03:57:07;2.10;99.90
37702;DHT22;23548;51.196;6.838;2023-01-19T03:59:34;2.10;99.90
37702;DHT22;23548;51.196;6.838;2023-01-19T04:02:00;2.20;99.90
37702;DHT22;23548;51.196;6.838;2023-01-19T04:04:26;2.20;99.90
37702;DHT22;23548;51.196;6.838;2023-01-19T04:06:52;2.30;99.90
37702;DHT22;23548;51.196;6.838;2023-01-19T04:09:17;2.30;99.90
37702;DHT22;23548;51.196;6.838;2023-01-19T04:11:43;2.40;99.90
37702;DHT22;23548;51.196;6.838;2023-01-19T04:14:09;2.30;99.90
37702;DHT22;23548;51.196;6.838;2023-01-19T04:16:34;2.40;99.90
37702;DHT22;23548;51.196;6.838;2023-01-19T04:19:00;2.40;99.90
37702;DHT22;23548;51.196;6.838;2023-01-19T04:21:26;2.30;99.90
37702;DHT22;23548;51.196;6.838;2023-01-19T04:23:52;2.40;99.90
37702;DHT22;23548;51.196;6.838;2023-01-19T04:26:18;2.30;99.90
37702;DHT22;23548;51.196;6.838;2023-01-19T04:28:44;2.30;99.90
37702;DHT22;23548;51.196;6.838;2023-01-19T04:31:10;2.30;99.90
37702;DHT22;23548;51.196;6.838;2023-01-19T04:33:36;2.30;99.90
37702;DHT22;23548;51.196;6.838;2023-01-19T04:36:02;2.30;99.90
37702;DHT22;23548;51.196;6.838;2023-01-19T04:38:28;2.20;99.90
37702;DHT22;23548;51.196;6.838;2023-01-19T04:40:54;2.30;99.90
37702;DHT22;23548;51.196;6.838;2023-01-19T04:43:21;2.20;99.90
37702;DHT22;23548;51.196;6.838;2023-01-19T04:45:48;2.20;99.90
37702;DHT22;23548;51.196;6.838;2023-01-19T04:48:14;2.30;99.90
37702;DHT22;23548;51.196;6.838;2023-01-19T04:50:40;2.30;99.90
37702;DHT22;23548;51.196;6.838;2023-01-19T04:53:06;2.20;99.90
37702;DHT22;23548;51.196;6.838;2023-01-19T04:55:32;2.20;99.90
37702;DHT22;23548;51.196;6.838;2023-01-19T04:57:58;2.30;99.90
37702;DHT22;23548;51.196;6.838;2023-01-19T05:00:24;2.20;99.90
37702;DHT22;23548;51.196;6.838;2023-01-19T05:02:51;2.10;99.90
37702;DHT22;23548;51.196;6.838;2023-01-19T05:05:17;2.10;99.90
37702;DHT22;23548;51.196;6.838;2023-01-19T05:07:42;2.00;99.90
37702;DHT22;23548;51.196;6.838;2023-01-19T05:10:09;1.90;99.90
37702;DHT22;23548;51.196;6.838;2023-01-19T05:12:35;2.00;99.90
37702;DHT22;23548;51.196;6.838;2023-01-19T05:15:01;1.80;99.90
37702;DHT22;23548;51.196;6.838;2023-01-19T05:17:27;1.80;99.90
37702;DHT22;23548;51.196;6.838;2023-01-19T05:19:53;1.80;99.90
37702;DHT22;23548;51.196;6.838;2023-01-19T05:22:19;1.80;99.90
37702;DHT22;23548;51.196;6.838;2023-01-19T05:24:44;1.80;99.90
37702;DHT22;23548;51.196;6.838;2023-01-19T05:27:10;1.70;99.90
37702;DHT22;23548;51.196;6.838;2023-01-19T05:29:36;1.60;99.90
37702;DHT22;23548;51.196;6.838;2023-01-19T05:32:02;1.60;99.90
37702;DHT22;23548;51.196;6.838;2023-01-19T05:34:28;1.60;99.90
37702;DHT22;23548;51.196;6.838;2023-01-19T05:36:54;1.60;99.90
37702;DHT22;23548;51.196;6.838;2023-01-19T05:39:19;1.60;99.90
37702;DHT22;23548;51.196;6.838;2023-01-19T05:41:45;1.60;99.90
37702;DHT22;23548;51.196;6.838;2023-01-19T05:44:12;1.50;99.90
37702;DHT22;23548;51.196;6.838;2023-01-19T05:46:38;1.60;99.90
37702;DHT22;23548;51.196;6.838;2023-01-19T05:49:05;1.50;99.90
37702;DHT22;23548;51.196;6.838;2023-01-19T05:51:32;1.40;99.90
37702;DHT22;23548;51.196;6.838;2023-01-19T05:54:06;1.50;99.90
37702;DHT22;23548;51.196;6.838;2023-01-19T05:56:32;1.50;99.90
37702;DHT22;23548;51.196;6.838;2023-01-19T05:58:58;1.60;99.90
37702;DHT22;23548;51.196;6.838;2023-01-19T06:01:24;1.60;99.90
37702;DHT22;23548;51.196;6.838;2023-01-19T06:03:50;1.60;99.90
37702;DHT22;23548;51.196;6.838;2023-01-19T06:06:16;1.70;99.90
37702;DHT22;23548;51.196;6.838;2023-01-19T06:08:42;1.60;99.90
37702;DHT22;23548;51.196;6.838;2023-01-19T06:11:08;1.60;99.90
37702;DHT22;23548;51.196;6.838;2023-01-19T06:13:34;1.50;99.90
37702;DHT22;23548;51.196;6.838;2023-01-19T06:16:01;1.50;99.90
37702;DHT22;23548;51.196;6.838;2023-01-19T06:18:28;1.50;99.90
37702;DHT22;23548;51.196;6.838;2023-01-19T06:20:54;1.50;99.90
37702;DHT22;23548;51.196;6.838;2023-01-19T06:23:28;1.50;99.90
37702;DHT22;23548;51.196;6.838;2023-01-19T06:25:54;1.60;99.90
37702;DHT22;23548;51.196;6.838;2023-01-19T06:28:20;1.60;99.90
37702;DHT22;23548;51.196;6.838;2023-01-19T06:30:50;1.50;99.90
37702;DHT22;23548;51.196;6.838;2023-01-19T06:33:17;1.50;99.90
37702;DHT22;23548;51.196;6.838;2023-01-19T06:35:47;1.50;99.90
37702;DHT22;23548;51.196;6.838;2023-01-19T06:38:14;1.50;99.90
37702;DHT22;23548;51.196;6.838;2023-01-19T06:40:41;1.50;99.90
37702;DHT22;23548;51.196;6.838;2023-01-19T06:43:07;1.50;99.90
37702;DHT22;23548;51.196;6.838;2023-01-19T06:45:33;1.60;99.90
37702;DHT22;23548;51.196;6.838;2023-01-19T06:47:59;1.50;99.90
37702;DHT22;23548;51.196;6.838;2023-01-19T06:50:25;1.60;99.90
37702;DHT22;23548;51.196;6.838;2023-01-19T06:52:51;1.70;99.90
37702;DHT22;23548;51.196;6.838;2023-01-19T06:55:18;1.60;99.90
37702;DHT22;23548;51.196;6.838;2023-01-19T06:57:44;1.60;99.90
37702;DHT22;23548;51.196;6.838;2023-01-19T07:00:11;1.70;99.90
37702;DHT22;23548;51.196;6.838;2023-01-19T07:02:40;1.60;99.90
37702;DHT22;23548;51.196;6.838;2023-01-19T07:05:07;1.60;99.90
37702;DHT22;23548;51.196;6.838;2023-01-19T07:07:34;1.60;99.90
37702;DHT22;23548;51.196;6.838;2023-01-19T07:10:00;1.60;99.90
37702;DHT22;23548;51.196;6.838;2023-01-19T07:12:26;1.60;99.90
37702;DHT22;23548;51.196;6.838;2023-01-19T07:14:51;1.70;99.90
37702;DHT22;23548;51.196;6.838;2023-01-19T07:17:18;1.60;99.90
37702;DHT22;23548;51.196;6.838;2023-01-19T07:19:44;0.80;99.90
37702;DHT22;23548;51.196;6.838;2023-01-19T07:22:10;1.60;99.90
37702;DHT22;23548;51.196;6.838;2023-01-19T07:24:36;1.70;99.90
37702;DHT22;23548;51.196;6.838;2023-01-19T07:27:02;1.60;99.90
37702;DHT22;23548;51.196;6.838;2023-01-19T07:29:29;1.60;99.90
37702;DHT22;23548;51.196;6.838;2023-01-19T07:31:54;1.60;99.90
37702;DHT22;23548;51.196;6.838;2023-01-19T07:34:21;1.60;99.90
37702;DHT22;23548;51.196;6.838;2023-01-19T07:36:46;1.60;99.90
37702;DHT22;23548;51.196;6.838;2023-01-19T07:39:12;1.70;99.90
37702;DHT22;23548;51.196;6.838;2023-01-19T07:41:38;1.60;99.90
37702;DHT22;23548;51.196;6.838;2023-01-19T07:44:04;1.70;99.90
37702;DHT22;23548;51.196;6.838;2023-01-19T07:46:30;1.70;99.90
37702;DHT22;23548;51.196;6.838;2023-01-19T07:48:56;1.80;99.90
37702;DHT22;23548;51.196;6.838;2023-01-19T07:51:21;1.80;99.90
37702;DHT22;23548;51.196;6.838;2023-01-19T07:53:50;1.80;99.90
37702;DHT22;23548;51.196;6.838;2023-01-19T07:56:16;1.80;99.90
37702;DHT22;23548;51.196;6.838;2023-01-19T07:58:42;1.90;99.90
37702;DHT22;23548;51.196;6.838;2023-01-19T08:01:09;1.90;99.90
37702;DHT22;23548;51.196;6.838;2023-01-19T08:03:35;1.90;99.90
37702;DHT22;23548;51.196;6.838;2023-01-19T08:06:02;1.90;99.90
37702;DHT22;23548;51.196;6.838;2023-01-19T08:08:30;2.00;99.90
37702;DHT22;23548;51.196;6.838;2023-01-19T08:10:57;2.00;99.90
37702;DHT22;23548;51.196;6.838;2023-01-19T08:13:23;2.00;99.90
37702;DHT22;23548;51.196;6.838;2023-01-19T08:15:50;2.00;99.90
37702;DHT22;23548;51.196;6.838;2023-01-19T08:18:17;2.00;99.90
37702;DHT22;23548;51.196;6.838;2023-01-19T08:20:43;2.10;99.90
37702;DHT22;23548;51.196;6.838;2023-01-19T08:23:09;2.10;99.90
37702;DHT22;23548;51.196;6.838;2023-01-19T08:25:42;2.10;99.90
37702;DHT22;23548;51.196;6.838;2023-01-19T08:28:11;2.20;99.90
37702;DHT22;23548;51.196;6.838;2023-01-19T08:30:38;2.20;99.90
37702;DHT22;23548;51.196;6.838;2023-01-19T08:33:05;2.20;99.90
37702;DHT22;23548;51.196;6.838;2023-01-19T08:35:35;2.20;99.90
37702;DHT22;23548;51.196;6.838;2023-01-19T08:38:02;2.20;99.90
37702;DHT22;23548;51.196;6.838;2023-01-19T08:40:33;2.20;99.90
37702;DHT22;23548;51.196;6.838;2023-01-19T08:43:04;2.20;99.90
37702;DHT22;23548;51.196;6.838;2023-01-19T08:45:41;2.20;99.90
37702;DHT22;23548;51.196;6.838;2023-01-19T08:48:11;2.30;99.90
37702;DHT22;23548;51.196;6.838;2023-01-19T08:50:38;2.30;99.90
37702;DHT22;23548;51.196;6.838;2023-01-19T08:53:04;2.30;99.90
37702;DHT22;23548;51.196;6.838;2023-01-19T08:55:36;2.40;99.90
37702;DHT22;23548;51.196;6.838;2023-01-19T08:58:03;2.40;99.90
37702;DHT22;23548;51.196;6.838;2023-01-19T09:00:30;2.40;99.90
37702;DHT22;23548;51.196;6.838;2023-01-19T09:02:58;2.50;99.90
37702;DHT22;23548;51.196;6.838;2023-01-19T09:05:24;2.60;99.90
37702;DHT22;23548;51.196;6.838;2023-01-19T09:07:50;2.60;99.90
37702;DHT22;23548;51.196;6.838;2023-01-19T09:10:17;2.60;99.90
37702;DHT22;23548;51.196;6.838;2023-01-19T09:12:43;2.60;99.90
37702;DHT22;23548;51.196;6.838;2023-01-19T09:15:10;2.60;99.90
37702;DHT22;23548;51.196;6.838;2023-01-19T09:17:36;2.70;99.90
37702;DHT22;23548;51.196;6.838;2023-01-19T09:20:03;2.70;99.90
37702;DHT22;23548;51.196;6.838;2023-01-19T09:22:30;2.80;99.90
37702;DHT22;23548;51.196;6.838;2023-01-19T09:24:57;2.90;99.90
37702;DHT22;23548;51.196;6.838;2023-01-19T09:27:23;3.00;99.90
37702;DHT22;23548;51.196;6.838;2023-01-19T09:29:49;2.90;99.90
37702;DHT22;23548;51.196;6.838;2023-01-19T09:32:19;2.90;99.90
37702;DHT22;23548;51.196;6.838;2023-01-19T09:34:46;2.90;99.90
37702;DHT22;23548;51.196;6.838;2023-01-19T09:37:12;3.00;99.90
37702;DHT22;23548;51.196;6.838;2023-01-19T09:39:41;3.00;99.90
37702;DHT22;23548;51.196;6.838;2023-01-19T09:42:22;3.10;99.90
37702;DHT22;23548;51.196;6.838;2023-01-19T09:44:52;3.00;99.90
37702;DHT22;23548;51.196;6.838;2023-01-19T09:47:23;2.90;99.90
37702;DHT22;23548;51.196;6.838;2023-01-19T09:50:15;2.90;99.90
37702;DHT22;23548;51.196;6.838;2023-01-19T09:52:44;2.90;99.90
37702;DHT22;23548;51.196;6.838;2023-01-19T09:55:30;2.70;99.90
37702;DHT22;23548;51.196;6.838;2023-01-19T09:57:57;2.80;99.90
37702;DHT22;23548;51.196;6.838;2023-01-19T10:00:23;2.90;99.90
37702;DHT22;23548;51.196;6.838;2023-01-19T10:02:56;2.90;99.90
37702;DHT22;23548;51.196;6.838;2023-01-19T10:08:27;2.90;99.90
37702;DHT22;23548;51.196;6.838;2023-01-19T10:10:57;2.90;99.90
37702;DHT22;23548;51.196;6.838;2023-01-19T10:13:41;2.90;99.90
37702;DHT22;23548;51.196;6.838;2023-01-19T10:19:08;3.00;99.90
37702;DHT22;23548;51.196;6.838;2023-01-19T10:21:42;3.00;99.90
37702;DHT22;23548;51.196;6.838;2023-01-19T10:24:25;3.00;99.90
37702;DHT22;23548;51.196;6.838;2023-01-19T10:26:54;3.10;99.90
37702;DHT22;23548;51.196;6.838;2023-01-19T10:31:51;3.00;99.90
37702;DHT22;23548;51.196;6.838;2023-01-19T10:34:19;3.00;99.90
37702;DHT22;23548;51.196;6.838;2023-01-19T10:36:47;3.10;99.90
37702;DHT22;23548;51.196;6.838;2023-01-19T10:39:16;3.20;99.90
37702;DHT22;23548;51.196;6.838;2023-01-19T10:44:10;3.30;99.90
37702;DHT22;23548;51.196;6.838;2023-01-19T10:49:29;3.30;99.90
37702;DHT22;23548;51.196;6.838;2023-01-19T10:51:57;3.20;99.90
37702;DHT22;23548;51.196;6.838;2023-01-19T10:54:25;3.20;99.90
37702;DHT22;23548;51.196;6.838;2023-01-19T10:57:01;3.20;99.90
37702;DHT22;23548;51.196;6.838;2023-01-19T11:04:45;3.40;99.90
37702;DHT22;23548;51.196;6.838;2023-01-19T11:07:22;3.50;99.90
37702;DHT22;23548;51.196;6.838;2023-01-19T11:16:21;3.80;99.90
37702;DHT22;23548;51.196;6.838;2023-01-19T11:18:51;4.00;99.90
37702;DHT22;23548;51.196;6.838;2023-01-19T11:21:22;3.90;99.90
37702;DHT22;23548;51.196;6.838;2023-01-19T11:26:56;3.80;99.90
37702;DHT22;23548;51.196;6.838;2023-01-19T11:29:27;3.70;99.90
37702;DHT22;23548;51.196;6.838;2023-01-19T11:31:53;3.60;99.90
37702;DHT22;23548;51.196;6.838;2023-01-19T11:37:02;3.60;99.90
37702;DHT22;23548;51.196;6.838;2023-01-19T11:39:30;3.70;99.90
37702;DHT22;23548;51.196;6.838;2023-01-19T11:42:07;3.70;99.90
37702;DHT22;23548;51.196;6.838;2023-01-19T11:44:44;3.80;99.90
37702;DHT22;23548;51.196;6.838;2023-01-19T11:47:26;3.80;99.90
37702;DHT22;23548;51.196;6.838;2023-01-19T11:50:34;3.70;99.90
37702;DHT22;23548;51.196;6.838;2023-01-19T11:58:26;3.80;99.90
37702;DHT22;23548;51.196;6.838;2023-01-19T12:03:57;3.90;99.90
37702;DHT22;23548;51.196;6.838;2023-01-19T12:06:31;3.90;99.90
37702;DHT22;23548;51.196;6.838;2023-01-19T12:09:12;4.00;99.90
37702;DHT22;23548;51.196;6.838;2023-01-19T12:11:52;4.00;99.90
37702;DHT22;23548;51.196;6.838;2023-01-19T12:14:41;4.10;99.90
37702;DHT22;23548;51.196;6.838;2023-01-19T12:17:15;4.10;99.90
37702;DHT22;23548;51.196;6.838;2023-01-19T12:22:49;4.10;99.90
37702;DHT22;23548;51.196;6.838;2023-01-19T12:25:22;4.00;99.90
37702;DHT22;23548;51.196;6.838;2023-01-19T12:27:50;4.00;99.90
37702;DHT22;23548;51.196;6.838;2023-01-19T12:30:22;4.00;99.90
37702;DHT22;23548;51.196;6.838;2023-01-19T12:32:49;3.90;99.90
37702;DHT22;23548;51.196;6.838;2023-01-19T12:41:17;4.10;99.90
37702;DHT22;23548;51.196;6.838;2023-01-19T12:43:44;4.20;99.90
37702;DHT22;23548;51.196;6.838;2023-01-19T12:48:51;4.50;99.90
37702;DHT22;23548;51.196;6.838;2023-01-19T12:51:22;4.30;99.90
37702;DHT22;23548;51.196;6.838;2023-01-19T12:53:55;4.20;99.90
37702;DHT22;23548;51.196;6.838;2023-01-19T12:56:28;4.20;99.90
37702;DHT22;23548;51.196;6.838;2023-01-19T12:58:56;4.20;99.90
37702;DHT22;23548;51.196;6.838;2023-01-19T13:01:23;4.10;99.90
37702;DHT22;23548;51.196;6.838;2023-01-19T13:04:30;4.00;99.90
37702;DHT22;23548;51.196;6.838;2023-01-19T13:07:06;4.10;99.90
37702;DHT22;23548;51.196;6.838;2023-01-19T13:09:36;4.20;99.90
37702;DHT22;23548;51.196;6.838;2023-01-19T13:12:23;4.40;99.90
37702;DHT22;23548;51.196;6.838;2023-01-19T13:14:50;4.40;99.90
37702;DHT22;23548;51.196;6.838;2023-01-19T13:17:46;4.40;99.90
37702;DHT22;23548;51.196;6.838;2023-01-19T13:20:22;4.40;99.90
37702;DHT22;23548;51.196;6.838;2023-01-19T13:25:40;4.20;99.90
37702;DHT22;23548;51.196;6.838;2023-01-19T13:28:12;4.20;99.90
37702;DHT22;23548;51.196;6.838;2023-01-19T13:30:54;4.30;99.90
37702;DHT22;23548;51.196;6.838;2023-01-19T13:33:24;4.20;99.90
37702;DHT22;23548;51.196;6.838;2023-01-19T13:35:53;4.20;99.90
37702;DHT22;23548;51.196;6.838;2023-01-19T13:38:21;4.20;99.90
37702;DHT22;23548;51.196;6.838;2023-01-19T13:40:47;4.20;99.90
37702;DHT22;23548;51.196;6.838;2023-01-19T13:43:20;4.30;99.90
37702;DHT22;23548;51.196;6.838;2023-01-19T13:45:49;4.20;99.90
37702;DHT22;23548;51.196;6.838;2023-01-19T13:48:18;4.20;99.90
37702;DHT22;23548;51.196;6.838;2023-01-19T13:50:57;4.30;99.90
37702;DHT22;23548;51.196;6.838;2023-01-19T13:53:23;4.20;99.90
37702;DHT22;23548;51.196;6.838;2023-01-19T13:56:28;4.30;99.90
37702;DHT22;23548;51.196;6.838;2023-01-19T13:59:04;4.50;99.90
37702;DHT22;23548;51.196;6.838;2023-01-19T14:01:36;4.70;99.90
37702;DHT22;23548;51.196;6.838;2023-01-19T14:04:03;4.80;99.90
37702;DHT22;23548;51.196;6.838;2023-01-19T14:06:38;4.80;99.90
37702;DHT22;23548;51.196;6.838;2023-01-19T14:11:31;4.50;99.90
37702;DHT22;23548;51.196;6.838;2023-01-19T14:13:57;4.60;99.90
37702;DHT22;23548;51.196;6.838;2023-01-19T14:16:23;4.60;99.90
37702;DHT22;23548;51.196;6.838;2023-01-19T14:19:01;4.60;99.90
37702;DHT22;23548;51.196;6.838;2023-01-19T14:21:39;4.50;99.90
37702;DHT22;23548;51.196;6.838;2023-01-19T14:24:17;4.40;99.90
37702;DHT22;23548;51.196;6.838;2023-01-19T14:26:51;4.40;99.90
37702;DHT22;23548;51.196;6.838;2023-01-19T14:29:26;4.30;99.90
37702;DHT22;23548;51.196;6.838;2023-01-19T14:37:30;4.80;99.90
37702;DHT22;23548;51.196;6.838;2023-01-19T14:42:32;3.90;99.90
37702;DHT22;23548;51.196;6.838;2023-01-19T14:45:02;3.90;99.90
37702;DHT22;23548;51.196;6.838;2023-01-19T14:47:42;3.90;99.90
37702;DHT22;23548;51.196;6.838;2023-01-19T14:50:22;3.90;99.90
37702;DHT22;23548;51.196;6.838;2023-01-19T14:55:42;3.90;99.90
37702;DHT22;23548;51.196;6.838;2023-01-19T14:58:15;3.80;99.90
37702;DHT22;23548;51.196;6.838;2023-01-19T15:00:43;3.80;99.90
37702;DHT22;23548;51.196;6.838;2023-01-19T15:03:09;3.70;99.90
37702;DHT22;23548;51.196;6.838;2023-01-19T15:05:40;3.70;99.90
37702;DHT22;23548;51.196;6.838;2023-01-19T15:08:10;3.60;99.90
37702;DHT22;23548;51.196;6.838;2023-01-19T15:10:37;3.60;99.90
37702;DHT22;23548;51.196;6.838;2023-01-19T15:13:03;3.50;99.90
37702;DHT22;23548;51.196;6.838;2023-01-19T15:15:31;3.50;99.90
37702;DHT22;23548;51.196;6.838;2023-01-19T15:18:00;3.50;99.90
37702;DHT22;23548;51.196;6.838;2023-01-19T15:20:27;3.60;99.90
37702;DHT22;23548;51.196;6.838;2023-01-19T15:26:17;3.50;99.90
37702;DHT22;23548;51.196;6.838;2023-01-19T15:32:13;3.60;99.90
37702;DHT22;23548;51.196;6.838;2023-01-19T15:34:40;3.60;99.90
37702;DHT22;23548;51.196;6.838;2023-01-19T15:43:50;3.60;99.90
37702;DHT22;23548;51.196;6.838;2023-01-19T15:46:18;3.60;99.90
37702;DHT22;23548;51.196;6.838;2023-01-19T15:48:46;3.50;99.90
37702;DHT22;23548;51.196;6.838;2023-01-19T15:51:13;3.40;99.90
37702;DHT22;23548;51.196;6.838;2023-01-19T15:53:39;3.50;99.90
37702;DHT22;23548;51.196;6.838;2023-01-19T15:56:10;3.50;99.90
37702;DHT22;23548;51.196;6.838;2023-01-19T15:58:44;3.40;99.90
37702;DHT22;23548;51.196;6.838;2023-01-19T16:01:15;3.30;99.90
37702;DHT22;23548;51.196;6.838;2023-01-19T16:03:42;3.40;99.90
37702;DHT22;23548;51.196;6.838;2023-01-19T16:06:09;3.40;99.90
37702;DHT22;23548;51.196;6.838;2023-01-19T16:08:35;3.30;99.90
37702;DHT22;23548;51.196;6.838;2023-01-19T16:11:08;3.20;99.90
37702;DHT22;23548;51.196;6.838;2023-01-19T16:13:34;3.10;99.90
37702;DHT22;23548;51.196;6.838;2023-01-19T16:16:05;3.10;99.90
37702;DHT22;23548;51.196;6.838;2023-01-19T16:18:31;3.10;99.90
37702;DHT22;23548;51.196;6.838;2023-01-19T16:20:57;3.00;99.90
37702;DHT22;23548;51.196;6.838;2023-01-19T16:23:23;3.00;99.90
37702;DHT22;23548;51.196;6.838;2023-01-19T16:26:03;2.90;99.90
37702;DHT22;23548;51.196;6.838;2023-01-19T16:28:33;2.80;99.90
37702;DHT22;23548;51.196;6.838;2023-01-19T16:30:59;2.80;99.90
37702;DHT22;23548;51.196;6.838;2023-01-19T16:33:25;2.70;99.90
37702;DHT22;23548;51.196;6.838;2023-01-19T16:35:51;2.70;99.90
37702;DHT22;23548;51.196;6.838;2023-01-19T16:38:22;2.70;99.90
37702;DHT22;23548;51.196;6.838;2023-01-19T16:40:48;2.70;99.90
37702;DHT22;23548;51.196;6.838;2023-01-19T16:43:14;2.70;99.90
37702;DHT22;23548;51.196;6.838;2023-01-19T16:45:58;2.70;99.90
37702;DHT22;23548;51.196;6.838;2023-01-19T16:48:25;2.80;99.90
37702;DHT22;23548;51.196;6.838;2023-01-19T16:51:05;2.80;99.90
37702;DHT22;23548;51.196;6.838;2023-01-19T16:53:32;2.90;99.90
37702;DHT22;23548;51.196;6.838;2023-01-19T16:56:06;2.90;99.90
37702;DHT22;23548;51.196;6.838;2023-01-19T16:58:33;3.00;99.90
37702;DHT22;23548;51.196;6.838;2023-01-19T17:00:59;3.00;99.90
37702;DHT22;23548;51.196;6.838;2023-01-19T17:03:25;2.90;99.90
37702;DHT22;23548;51.196;6.838;2023-01-19T17:05:51;2.90;99.90
37702;DHT22;23548;51.196;6.838;2023-01-19T17:08:18;2.80;99.90
37702;DHT22;23548;51.196;6.838;2023-01-19T17:10:45;2.80;99.90
37702;DHT22;23548;51.196;6.838;2023-01-19T17:13:11;2.70;99.90
37702;DHT22;23548;51.196;6.838;2023-01-19T17:15:37;2.70;99.90
37702;DHT22;23548;51.196;6.838;2023-01-19T17:18:03;2.70;99.90
37702;DHT22;23548;51.196;6.838;2023-01-19T17:20:32;2.70;99.90
37702;DHT22;23548;51.196;6.838;2023-01-19T17:22:58;2.60;99.90
37702;DHT22;23548;51.196;6.838;2023-01-19T17:25:24;2.60;99.90
37702;DHT22;23548;51.196;6.838;2023-01-19T17:27:50;2.60;99.90
37702;DHT22;23548;51.196;6.838;2023-01-19T17:30:16;2.50;99.90